sensor_id;sensor_type;location;lat;lon;timestamp;P1;durP1;ratioP1;P2;durP2;ratioP2
37239;SDS011;23130;48.760;9.178;2023-07-16T00:01:57;8.60;;;4.65;;
37239;SDS011;23130;48.760;9.178;2023-07-16T00:04:23;10.07;;;5.38;;
37239;SDS011;23130;48.760;9.178;2023-07-16T00:06:49;7.60;;;4.60;;
37239;SDS011;23130;48.760;9.178;2023-07-16T00:09:14;7.85;;;4.40;;
37239;SDS011;23130;48.760;9.178;2023-07-16T00:11:40;8.20;;;5.15;;
37239;SDS011;23130;48.760;9.178;2023-07-16T00:14:06;5.75;;;3.88;;
37239;SDS011;23130;48.760;9.178;2023-07-16T00:16:31;7.95;;;5.45;;
37239;SDS011;23130;48.760;9.178;2023-07-16T00:18:57;7.88;;;4.90;;
37239;SDS011;23130;48.760;9.178;2023-07-16T00:21:23;10.48;;;4.93;;
37239;SDS011;23130;48.760;9.178;2023-07-16T00:23:49;6.25;;;3.97;;
37239;SDS011;23130;48.760;9.178;2023-07-16T00:26:14;8.32;;;4.95;;
37239;SDS011;23130;48.760;9.178;2023-07-16T00:28:40;5.55;;;3.85;;
37239;SDS011;23130;48.760;9.178;2023-07-16T00:31:05;12.38;;;4.30;;
37239;SDS011;23130;48.760;9.178;2023-07-16T00:33:31;8.10;;;4.30;;
37239;SDS011;23130;48.760;9.178;2023-07-16T00:35:57;7.10;;;3.78;;
37239;SDS011;23130;48.760;9.178;2023-07-16T00:38:22;5.93;;;4.10;;
37239;SDS011;23130;48.760;9.178;2023-07-16T00:40:48;5.63;;;4.25;;
37239;SDS011;23130;48.760;9.178;2023-07-16T00:43:14;7.43;;;4.35;;
37239;SDS011;23130;48.760;9.178;2023-07-16T00:45:40;6.63;;;4.22;;
37239;SDS011;23130;48.760;9.178;2023-07-16T00:48:06;8.32;;;4.63;;
37239;SDS011;23130;48.760;9.178;2023-07-16T00:50:33;6.03;;;4.22;;
37239;SDS011;23130;48.760;9.178;2023-07-16T00:53:04;7.97;;;4.45;;
37239;SDS011;23130;48.760;9.178;2023-07-16T00:55:30;6.28;;;3.67;;
37239;SDS011;23130;48.760;9.178;2023-07-16T00:58:03;6.07;;;3.38;;
37239;SDS011;23130;48.760;9.178;2023-07-16T01:00:33;5.47;;;3.55;;
37239;SDS011;23130;48.760;9.178;2023-07-16T01:03:09;7.43;;;3.22;;
37239;SDS011;23130;48.760;9.178;2023-07-16T01:08:31;6.20;;;3.25;;
37239;SDS011;23130;48.760;9.178;2023-07-16T01:13:34;6.75;;;3.05;;
37239;SDS011;23130;48.760;9.178;2023-07-16T01:16:00;5.55;;;3.03;;
37239;SDS011;23130;48.760;9.178;2023-07-16T01:18:25;5.72;;;3.33;;
37239;SDS011;23130;48.760;9.178;2023-07-16T01:20:52;8.10;;;3.17;;
37239;SDS011;23130;48.760;9.178;2023-07-16T01:23:26;3.92;;;2.70;;
37239;SDS011;23130;48.760;9.178;2023-07-16T01:31:47;4.97;;;2.33;;
37239;SDS011;23130;48.760;9.178;2023-07-16T01:34:16;3.03;;;1.95;;
37239;SDS011;23130;48.760;9.178;2023-07-16T01:36:42;2.65;;;1.67;;
37239;SDS011;23130;48.760;9.178;2023-07-16T01:39:09;5.32;;;1.80;;
37239;SDS011;23130;48.760;9.178;2023-07-16T01:41:34;3.38;;;1.42;;
37239;SDS011;23130;48.760;9.178;2023-07-16T01:44:00;2.38;;;1.55;;
37239;SDS011;23130;48.760;9.178;2023-07-16T01:46:25;3.35;;;1.52;;
37239;SDS011;23130;48.760;9.178;2023-07-16T01:48:54;3.55;;;1.95;;
37239;SDS011;23130;48.760;9.178;2023-07-16T01:51:20;5.80;;;1.63;;
37239;SDS011;23130;48.760;9.178;2023-07-16T01:53:45;2.83;;;1.73;;
37239;SDS011;23130;48.760;9.178;2023-07-16T01:56:11;3.08;;;2.08;;
37239;SDS011;23130;48.760;9.178;2023-07-16T01:58:37;4.28;;;1.55;;
37239;SDS011;23130;48.760;9.178;2023-07-16T02:01:03;3.55;;;2.00;;
37239;SDS011;23130;48.760;9.178;2023-07-16T02:03:28;4.20;;;1.48;;
37239;SDS011;23130;48.760;9.178;2023-07-16T02:05:54;3.47;;;2.05;;
37239;SDS011;23130;48.760;9.178;2023-07-16T02:08:20;3.63;;;2.15;;
37239;SDS011;23130;48.760;9.178;2023-07-16T02:10:48;2.83;;;1.75;;
37239;SDS011;23130;48.760;9.178;2023-07-16T02:13:14;4.65;;;1.80;;
37239;SDS011;23130;48.760;9.178;2023-07-16T02:15:40;4.25;;;1.90;;
37239;SDS011;23130;48.760;9.178;2023-07-16T02:18:05;3.22;;;1.70;;
37239;SDS011;23130;48.760;9.178;2023-07-16T02:20:31;3.45;;;1.90;;
37239;SDS011;23130;48.760;9.178;2023-07-16T02:22:57;3.25;;;2.40;;
37239;SDS011;23130;48.760;9.178;2023-07-16T02:25:22;5.18;;;2.20;;
37239;SDS011;23130;48.760;9.178;2023-07-16T02:27:48;4.72;;;2.40;;
37239;SDS011;23130;48.760;9.178;2023-07-16T02:30:14;5.05;;;2.33;;
37239;SDS011;23130;48.760;9.178;2023-07-16T02:32:41;2.75;;;1.98;;
37239;SDS011;23130;48.760;9.178;2023-07-16T02:35:07;3.67;;;2.33;;
37239;SDS011;23130;48.760;9.178;2023-07-16T02:37:33;3.60;;;1.80;;
37239;SDS011;23130;48.760;9.178;2023-07-16T02:39:58;4.10;;;2.00;;
37239;SDS011;23130;48.760;9.178;2023-07-16T02:42:24;4.05;;;2.47;;
37239;SDS011;23130;48.760;9.178;2023-07-16T02:44:51;4.72;;;2.03;;
37239;SDS011;23130;48.760;9.178;2023-07-16T02:47:16;4.22;;;2.05;;
37239;SDS011;23130;48.760;9.178;2023-07-16T02:49:42;3.58;;;1.70;;
37239;SDS011;23130;48.760;9.178;2023-07-16T02:52:07;3.38;;;1.73;;
37239;SDS011;23130;48.760;9.178;2023-07-16T02:54:35;3.75;;;1.85;;
37239;SDS011;23130;48.760;9.178;2023-07-16T02:57:01;3.20;;;2.05;;
37239;SDS011;23130;48.760;9.178;2023-07-16T02:59:27;3.03;;;1.42;;
37239;SDS011;23130;48.760;9.178;2023-07-16T03:01:52;4.15;;;1.50;;
37239;SDS011;23130;48.760;9.178;2023-07-16T03:04:18;2.45;;;1.35;;
37239;SDS011;23130;48.760;9.178;2023-07-16T03:06:44;3.65;;;2.00;;
37239;SDS011;23130;48.760;9.178;2023-07-16T03:09:10;4.50;;;1.70;;
37239;SDS011;23130;48.760;9.178;2023-07-16T03:11:36;3.67;;;1.80;;
37239;SDS011;23130;48.760;9.178;2023-07-16T03:14:01;5.15;;;1.80;;
37239;SDS011;23130;48.760;9.178;2023-07-16T03:16:27;3.63;;;1.60;;
37239;SDS011;23130;48.760;9.178;2023-07-16T03:18:53;5.65;;;1.67;;
37239;SDS011;23130;48.760;9.178;2023-07-16T03:21:18;4.85;;;1.83;;
37239;SDS011;23130;48.760;9.178;2023-07-16T03:23:44;2.70;;;2.00;;
37239;SDS011;23130;48.760;9.178;2023-07-16T03:26:10;7.85;;;1.90;;
37239;SDS011;23130;48.760;9.178;2023-07-16T03:28:35;5.15;;;2.25;;
37239;SDS011;23130;48.760;9.178;2023-07-16T03:31:01;6.65;;;1.88;;
37239;SDS011;23130;48.760;9.178;2023-07-16T03:33:27;3.30;;;1.60;;
37239;SDS011;23130;48.760;9.178;2023-07-16T03:35:52;3.58;;;1.92;;
37239;SDS011;23130;48.760;9.178;2023-07-16T03:38:18;3.40;;;1.55;;
37239;SDS011;23130;48.760;9.178;2023-07-16T03:40:45;6.40;;;1.90;;
37239;SDS011;23130;48.760;9.178;2023-07-16T03:43:12;7.07;;;1.95;;
37239;SDS011;23130;48.760;9.178;2023-07-16T03:45:38;3.08;;;2.00;;
37239;SDS011;23130;48.760;9.178;2023-07-16T03:48:04;5.28;;;1.80;;
37239;SDS011;23130;48.760;9.178;2023-07-16T03:50:30;3.90;;;2.17;;
37239;SDS011;23130;48.760;9.178;2023-07-16T03:52:55;3.90;;;1.92;;
37239;SDS011;23130;48.760;9.178;2023-07-16T03:55:21;5.88;;;1.98;;
37239;SDS011;23130;48.760;9.178;2023-07-16T03:57:46;3.67;;;1.85;;
37239;SDS011;23130;48.760;9.178;2023-07-16T04:00:12;6.85;;;2.33;;
37239;SDS011;23130;48.760;9.178;2023-07-16T04:02:38;2.63;;;1.65;;
37239;SDS011;23130;48.760;9.178;2023-07-16T04:05:04;5.43;;;1.83;;
37239;SDS011;23130;48.760;9.178;2023-07-16T04:07:30;4.35;;;2.15;;
37239;SDS011;23130;48.760;9.178;2023-07-16T04:09:57;5.65;;;1.77;;
37239;SDS011;23130;48.760;9.178;2023-07-16T04:12:23;8.63;;;2.03;;
37239;SDS011;23130;48.760;9.178;2023-07-16T04:14:48;3.65;;;2.08;;
37239;SDS011;23130;48.760;9.178;2023-07-16T04:17:14;4.13;;;2.15;;
37239;SDS011;23130;48.760;9.178;2023-07-16T04:19:40;4.85;;;2.08;;
37239;SDS011;23130;48.760;9.178;2023-07-16T04:22:05;4.38;;;1.98;;
37239;SDS011;23130;48.760;9.178;2023-07-16T04:24:31;5.53;;;2.70;;
37239;SDS011;23130;48.760;9.178;2023-07-16T04:26:58;3.25;;;2.15;;
37239;SDS011;23130;48.760;9.178;2023-07-16T04:29:24;6.63;;;2.28;;
37239;SDS011;23130;48.760;9.178;2023-07-16T04:31:49;5.25;;;1.73;;
37239;SDS011;23130;48.760;9.178;2023-07-16T04:34:15;5.28;;;2.42;;
37239;SDS011;23130;48.760;9.178;2023-07-16T04:36:41;7.75;;;2.20;;
37239;SDS011;23130;48.760;9.178;2023-07-16T04:39:07;5.00;;;2.20;;
37239;SDS011;23130;48.760;9.178;2023-07-16T04:41:33;4.55;;;1.83;;
37239;SDS011;23130;48.760;9.178;2023-07-16T04:43:59;3.67;;;2.15;;
37239;SDS011;23130;48.760;9.178;2023-07-16T04:46:24;7.85;;;2.30;;
37239;SDS011;23130;48.760;9.178;2023-07-16T04:48:50;4.00;;;2.47;;
37239;SDS011;23130;48.760;9.178;2023-07-16T04:51:15;3.95;;;2.40;;
37239;SDS011;23130;48.760;9.178;2023-07-16T04:53:41;4.15;;;2.28;;
37239;SDS011;23130;48.760;9.178;2023-07-16T04:56:13;5.57;;;2.00;;
37239;SDS011;23130;48.760;9.178;2023-07-16T04:58:39;4.47;;;2.00;;
37239;SDS011;23130;48.760;9.178;2023-07-16T05:01:05;5.40;;;2.38;;
37239;SDS011;23130;48.760;9.178;2023-07-16T05:03:32;2.65;;;1.98;;
37239;SDS011;23130;48.760;9.178;2023-07-16T05:05:57;6.13;;;2.13;;
37239;SDS011;23130;48.760;9.178;2023-07-16T05:08:23;3.83;;;2.40;;
37239;SDS011;23130;48.760;9.178;2023-07-16T05:10:48;5.32;;;2.42;;
37239;SDS011;23130;48.760;9.178;2023-07-16T05:13:14;3.72;;;2.20;;
37239;SDS011;23130;48.760;9.178;2023-07-16T05:15:40;3.13;;;1.77;;
37239;SDS011;23130;48.760;9.178;2023-07-16T05:18:08;5.03;;;2.10;;
37239;SDS011;23130;48.760;9.178;2023-07-16T05:20:33;5.13;;;2.83;;
37239;SDS011;23130;48.760;9.178;2023-07-16T05:22:59;5.15;;;2.22;;
37239;SDS011;23130;48.760;9.178;2023-07-16T05:25:25;4.00;;;1.70;;
37239;SDS011;23130;48.760;9.178;2023-07-16T05:27:50;6.35;;;2.00;;
37239;SDS011;23130;48.760;9.178;2023-07-16T05:30:16;4.80;;;2.35;;
37239;SDS011;23130;48.760;9.178;2023-07-16T05:32:41;4.82;;;2.38;;
37239;SDS011;23130;48.760;9.178;2023-07-16T05:35:07;8.07;;;2.20;;
37239;SDS011;23130;48.760;9.178;2023-07-16T05:37:33;3.65;;;2.08;;
37239;SDS011;23130;48.760;9.178;2023-07-16T05:39:58;2.75;;;1.98;;
37239;SDS011;23130;48.760;9.178;2023-07-16T05:42:24;2.92;;;2.10;;
37239;SDS011;23130;48.760;9.178;2023-07-16T05:44:49;6.10;;;2.20;;
37239;SDS011;23130;48.760;9.178;2023-07-16T05:47:15;8.77;;;2.22;;
37239;SDS011;23130;48.760;9.178;2023-07-16T05:49:41;6.05;;;3.03;;
37239;SDS011;23130;48.760;9.178;2023-07-16T05:52:06;5.18;;;2.17;;
37239;SDS011;23130;48.760;9.178;2023-07-16T05:54:33;5.55;;;2.15;;
37239;SDS011;23130;48.760;9.178;2023-07-16T05:56:59;5.53;;;2.17;;
37239;SDS011;23130;48.760;9.178;2023-07-16T05:59:25;5.50;;;1.90;;
37239;SDS011;23130;48.760;9.178;2023-07-16T06:01:51;6.50;;;1.63;;
37239;SDS011;23130;48.760;9.178;2023-07-16T06:04:16;4.18;;;1.70;;
37239;SDS011;23130;48.760;9.178;2023-07-16T06:06:42;7.65;;;1.67;;
37239;SDS011;23130;48.760;9.178;2023-07-16T06:09:08;4.85;;;1.42;;
37239;SDS011;23130;48.760;9.178;2023-07-16T06:11:34;4.88;;;2.35;;
37239;SDS011;23130;48.760;9.178;2023-07-16T06:13:59;8.68;;;1.88;;
37239;SDS011;23130;48.760;9.178;2023-07-16T06:16:25;4.00;;;2.15;;
37239;SDS011;23130;48.760;9.178;2023-07-16T06:18:50;3.75;;;1.55;;
37239;SDS011;23130;48.760;9.178;2023-07-16T06:21:16;3.58;;;2.20;;
37239;SDS011;23130;48.760;9.178;2023-07-16T06:23:42;6.20;;;1.67;;
37239;SDS011;23130;48.760;9.178;2023-07-16T06:26:07;7.15;;;2.65;;
37239;SDS011;23130;48.760;9.178;2023-07-16T06:28:33;5.28;;;1.95;;
37239;SDS011;23130;48.760;9.178;2023-07-16T06:30:59;7.15;;;2.05;;
37239;SDS011;23130;48.760;9.178;2023-07-16T06:33:24;8.50;;;2.15;;
37239;SDS011;23130;48.760;9.178;2023-07-16T06:35:52;4.90;;;2.15;;
37239;SDS011;23130;48.760;9.178;2023-07-16T06:38:17;8.07;;;1.63;;
37239;SDS011;23130;48.760;9.178;2023-07-16T06:40:46;3.45;;;1.25;;
37239;SDS011;23130;48.760;9.178;2023-07-16T06:43:17;4.47;;;2.05;;
37239;SDS011;23130;48.760;9.178;2023-07-16T06:45:43;4.45;;;1.83;;
37239;SDS011;23130;48.760;9.178;2023-07-16T06:48:08;2.78;;;1.52;;
37239;SDS011;23130;48.760;9.178;2023-07-16T06:50:34;3.03;;;1.35;;
37239;SDS011;23130;48.760;9.178;2023-07-16T06:53:00;4.63;;;1.40;;
37239;SDS011;23130;48.760;9.178;2023-07-16T06:55:26;5.95;;;1.38;;
37239;SDS011;23130;48.760;9.178;2023-07-16T06:57:51;5.50;;;1.23;;
37239;SDS011;23130;48.760;9.178;2023-07-16T07:00:17;6.72;;;1.83;;
37239;SDS011;23130;48.760;9.178;2023-07-16T07:02:42;3.08;;;1.20;;
37239;SDS011;23130;48.760;9.178;2023-07-16T07:05:08;4.13;;;1.70;;
37239;SDS011;23130;48.760;9.178;2023-07-16T07:07:34;2.33;;;0.95;;
37239;SDS011;23130;48.760;9.178;2023-07-16T07:09:59;5.70;;;1.13;;
37239;SDS011;23130;48.760;9.178;2023-07-16T07:12:25;6.72;;;1.27;;
37239;SDS011;23130;48.760;9.178;2023-07-16T07:14:52;2.55;;;0.90;;
37239;SDS011;23130;48.760;9.178;2023-07-16T07:17:17;3.72;;;0.95;;
37239;SDS011;23130;48.760;9.178;2023-07-16T07:19:43;1.65;;;0.82;;
37239;SDS011;23130;48.760;9.178;2023-07-16T07:22:09;3.70;;;1.15;;
37239;SDS011;23130;48.760;9.178;2023-07-16T07:24:34;1.98;;;0.93;;
37239;SDS011;23130;48.760;9.178;2023-07-16T07:27:00;3.03;;;1.35;;
37239;SDS011;23130;48.760;9.178;2023-07-16T07:29:25;4.13;;;1.33;;
37239;SDS011;23130;48.760;9.178;2023-07-16T07:31:51;1.63;;;1.00;;
37239;SDS011;23130;48.760;9.178;2023-07-16T07:34:17;3.13;;;0.90;;
37239;SDS011;23130;48.760;9.178;2023-07-16T07:36:43;2.40;;;1.40;;
37239;SDS011;23130;48.760;9.178;2023-07-16T07:39:09;3.20;;;1.13;;
37239;SDS011;23130;48.760;9.178;2023-07-16T07:41:34;3.17;;;1.23;;
37239;SDS011;23130;48.760;9.178;2023-07-16T07:44:00;3.65;;;1.20;;
37239;SDS011;23130;48.760;9.178;2023-07-16T07:46:25;5.10;;;1.08;;
37239;SDS011;23130;48.760;9.178;2023-07-16T07:48:51;3.28;;;0.95;;
37239;SDS011;23130;48.760;9.178;2023-07-16T07:51:17;3.05;;;1.17;;
37239;SDS011;23130;48.760;9.178;2023-07-16T07:53:42;4.68;;;1.30;;
37239;SDS011;23130;48.760;9.178;2023-07-16T07:56:08;5.57;;;1.45;;
37239;SDS011;23130;48.760;9.178;2023-07-16T07:58:33;2.55;;;1.30;;
37239;SDS011;23130;48.760;9.178;2023-07-16T08:01:05;3.20;;;1.20;;
37239;SDS011;23130;48.760;9.178;2023-07-16T08:03:32;3.28;;;1.00;;
37239;SDS011;23130;48.760;9.178;2023-07-16T08:05:57;3.85;;;1.80;;
37239;SDS011;23130;48.760;9.178;2023-07-16T08:08:23;4.32;;;1.25;;
37239;SDS011;23130;48.760;9.178;2023-07-16T08:10:48;3.20;;;1.20;;
37239;SDS011;23130;48.760;9.178;2023-07-16T08:13:14;2.92;;;1.17;;
37239;SDS011;23130;48.760;9.178;2023-07-16T08:15:40;3.00;;;1.10;;
37239;SDS011;23130;48.760;9.178;2023-07-16T08:18:05;2.55;;;1.30;;
37239;SDS011;23130;48.760;9.178;2023-07-16T08:20:31;4.53;;;1.50;;
37239;SDS011;23130;48.760;9.178;2023-07-16T08:22:57;6.47;;;1.30;;
37239;SDS011;23130;48.760;9.178;2023-07-16T08:25:22;6.95;;;1.30;;
37239;SDS011;23130;48.760;9.178;2023-07-16T08:27:48;2.85;;;0.98;;
37239;SDS011;23130;48.760;9.178;2023-07-16T08:30:14;3.55;;;1.00;;
37239;SDS011;23130;48.760;9.178;2023-07-16T08:32:40;3.22;;;1.25;;
37239;SDS011;23130;48.760;9.178;2023-07-16T08:35:05;3.78;;;1.17;;
37239;SDS011;23130;48.760;9.178;2023-07-16T08:37:31;2.00;;;1.00;;
37239;SDS011;23130;48.760;9.178;2023-07-16T08:39:57;3.72;;;1.10;;
37239;SDS011;23130;48.760;9.178;2023-07-16T08:42:22;3.53;;;0.95;;
37239;SDS011;23130;48.760;9.178;2023-07-16T08:44:49;3.45;;;1.13;;
37239;SDS011;23130;48.760;9.178;2023-07-16T08:47:17;2.92;;;1.15;;
37239;SDS011;23130;48.760;9.178;2023-07-16T08:49:51;4.80;;;1.20;;
37239;SDS011;23130;48.760;9.178;2023-07-16T08:52:20;2.33;;;1.02;;
37239;SDS011;23130;48.760;9.178;2023-07-16T08:54:46;3.03;;;1.20;;
37239;SDS011;23130;48.760;9.178;2023-07-16T08:57:12;2.90;;;1.05;;
37239;SDS011;23130;48.760;9.178;2023-07-16T08:59:39;5.88;;;1.42;;
37239;SDS011;23130;48.760;9.178;2023-07-16T09:02:05;3.47;;;1.38;;
37239;SDS011;23130;48.760;9.178;2023-07-16T09:04:32;2.35;;;1.40;;
37239;SDS011;23130;48.760;9.178;2023-07-16T09:06:57;3.65;;;1.40;;
37239;SDS011;23130;48.760;9.178;2023-07-16T09:09:23;5.30;;;1.10;;
37239;SDS011;23130;48.760;9.178;2023-07-16T09:11:49;6.70;;;1.10;;
37239;SDS011;23130;48.760;9.178;2023-07-16T09:14:18;3.22;;;1.10;;
37239;SDS011;23130;48.760;9.178;2023-07-16T09:16:50;2.42;;;0.75;;
37239;SDS011;23130;48.760;9.178;2023-07-16T09:21:47;2.75;;;1.23;;
37239;SDS011;23130;48.760;9.178;2023-07-16T09:24:15;4.03;;;1.77;;
37239;SDS011;23130;48.760;9.178;2023-07-16T09:26:52;1.42;;;0.75;;
37239;SDS011;23130;48.760;9.178;2023-07-16T09:29:18;2.25;;;1.20;;
37239;SDS011;23130;48.760;9.178;2023-07-16T09:31:58;4.05;;;1.20;;
37239;SDS011;23130;48.760;9.178;2023-07-16T09:34:28;4.95;;;1.70;;
37239;SDS011;23130;48.760;9.178;2023-07-16T09:36:55;2.90;;;1.27;;
37239;SDS011;23130;48.760;9.178;2023-07-16T09:39:25;4.13;;;1.23;;
37239;SDS011;23130;48.760;9.178;2023-07-16T09:41:51;1.52;;;0.77;;
37239;SDS011;23130;48.760;9.178;2023-07-16T09:44:17;3.63;;;1.10;;
37239;SDS011;23130;48.760;9.178;2023-07-16T09:46:44;3.20;;;1.20;;
37239;SDS011;23130;48.760;9.178;2023-07-16T09:49:11;3.40;;;1.20;;
37239;SDS011;23130;48.760;9.178;2023-07-16T09:51:38;5.05;;;1.52;;
37239;SDS011;23130;48.760;9.178;2023-07-16T09:54:04;2.47;;;1.10;;
37239;SDS011;23130;48.760;9.178;2023-07-16T09:56:41;3.45;;;1.35;;
37239;SDS011;23130;48.760;9.178;2023-07-16T09:59:11;3.80;;;1.65;;
37239;SDS011;23130;48.760;9.178;2023-07-16T10:01:39;2.60;;;1.25;;
37239;SDS011;23130;48.760;9.178;2023-07-16T10:04:12;2.30;;;1.38;;
37239;SDS011;23130;48.760;9.178;2023-07-16T10:12:22;3.10;;;1.30;;
37239;SDS011;23130;48.760;9.178;2023-07-16T10:14:50;3.50;;;1.40;;
37239;SDS011;23130;48.760;9.178;2023-07-16T10:17:18;2.90;;;1.30;;
37239;SDS011;23130;48.760;9.178;2023-07-16T10:20:03;3.08;;;1.30;;
37239;SDS011;23130;48.760;9.178;2023-07-16T10:22:38;4.38;;;1.38;;
37239;SDS011;23130;48.760;9.178;2023-07-16T10:27:43;2.80;;;1.17;;
37239;SDS011;23130;48.760;9.178;2023-07-16T10:30:10;2.30;;;1.20;;
37239;SDS011;23130;48.760;9.178;2023-07-16T10:32:36;3.58;;;1.35;;
37239;SDS011;23130;48.760;9.178;2023-07-16T10:35:03;4.28;;;1.48;;
37239;SDS011;23130;48.760;9.178;2023-07-16T10:37:29;3.17;;;1.40;;
37239;SDS011;23130;48.760;9.178;2023-07-16T10:39:56;3.13;;;0.93;;
37239;SDS011;23130;48.760;9.178;2023-07-16T10:42:24;3.33;;;1.27;;
37239;SDS011;23130;48.760;9.178;2023-07-16T10:44:51;3.33;;;1.48;;
37239;SDS011;23130;48.760;9.178;2023-07-16T10:47:18;3.45;;;1.23;;
37239;SDS011;23130;48.760;9.178;2023-07-16T10:49:48;1.90;;;1.13;;
37239;SDS011;23130;48.760;9.178;2023-07-16T10:52:14;3.13;;;1.15;;
37239;SDS011;23130;48.760;9.178;2023-07-16T10:54:40;3.03;;;1.40;;
37239;SDS011;23130;48.760;9.178;2023-07-16T10:57:06;2.80;;;1.50;;
37239;SDS011;23130;48.760;9.178;2023-07-16T10:59:32;2.40;;;1.35;;
37239;SDS011;23130;48.760;9.178;2023-07-16T11:01:57;2.03;;;1.40;;
37239;SDS011;23130;48.760;9.178;2023-07-16T11:04:23;3.88;;;1.10;;
37239;SDS011;23130;48.760;9.178;2023-07-16T11:06:52;2.80;;;1.10;;
37239;SDS011;23130;48.760;9.178;2023-07-16T11:09:17;4.05;;;1.23;;
37239;SDS011;23130;48.760;9.178;2023-07-16T11:11:43;3.03;;;1.50;;
37239;SDS011;23130;48.760;9.178;2023-07-16T11:14:09;3.10;;;1.58;;
37239;SDS011;23130;48.760;9.178;2023-07-16T11:16:35;5.70;;;1.45;;
37239;SDS011;23130;48.760;9.178;2023-07-16T11:19:03;3.25;;;1.23;;
37239;SDS011;23130;48.760;9.178;2023-07-16T11:21:29;2.70;;;1.27;;
37239;SDS011;23130;48.760;9.178;2023-07-16T11:23:55;3.45;;;1.60;;
37239;SDS011;23130;48.760;9.178;2023-07-16T11:26:20;5.55;;;1.58;;
37239;SDS011;23130;48.760;9.178;2023-07-16T11:28:49;2.85;;;1.23;;
37239;SDS011;23130;48.760;9.178;2023-07-16T11:31:16;2.92;;;1.40;;
37239;SDS011;23130;48.760;9.178;2023-07-16T11:33:43;2.60;;;1.25;;
37239;SDS011;23130;48.760;9.178;2023-07-16T11:36:11;2.53;;;1.60;;
37239;SDS011;23130;48.760;9.178;2023-07-16T11:38:38;2.47;;;1.20;;
37239;SDS011;23130;48.760;9.178;2023-07-16T11:41:04;2.03;;;1.35;;
37239;SDS011;23130;48.760;9.178;2023-07-16T11:43:36;2.78;;;1.20;;
37239;SDS011;23130;48.760;9.178;2023-07-16T11:46:13;4.60;;;1.70;;
37239;SDS011;23130;48.760;9.178;2023-07-16T11:48:40;1.90;;;1.38;;
37239;SDS011;23130;48.760;9.178;2023-07-16T11:51:06;2.17;;;1.40;;
37239;SDS011;23130;48.760;9.178;2023-07-16T11:53:32;3.53;;;1.48;;
37239;SDS011;23130;48.760;9.178;2023-07-16T11:55:57;3.38;;;1.33;;
37239;SDS011;23130;48.760;9.178;2023-07-16T11:58:23;3.92;;;1.48;;
37239;SDS011;23130;48.760;9.178;2023-07-16T12:00:51;3.33;;;1.30;;
37239;SDS011;23130;48.760;9.178;2023-07-16T12:03:17;2.85;;;1.42;;
37239;SDS011;23130;48.760;9.178;2023-07-16T12:05:43;4.43;;;1.98;;
37239;SDS011;23130;48.760;9.178;2023-07-16T12:08:08;4.13;;;1.38;;
37239;SDS011;23130;48.760;9.178;2023-07-16T12:10:39;3.75;;;1.40;;
37239;SDS011;23130;48.760;9.178;2023-07-16T12:13:05;3.72;;;1.38;;
37239;SDS011;23130;48.760;9.178;2023-07-16T12:15:30;2.05;;;1.40;;
37239;SDS011;23130;48.760;9.178;2023-07-16T12:17:57;2.13;;;1.00;;
37239;SDS011;23130;48.760;9.178;2023-07-16T12:20:22;2.33;;;1.40;;
37239;SDS011;23130;48.760;9.178;2023-07-16T12:22:48;2.97;;;1.40;;
37239;SDS011;23130;48.760;9.178;2023-07-16T12:25:13;2.20;;;1.10;;
37239;SDS011;23130;48.760;9.178;2023-07-16T12:27:41;2.95;;;1.30;;
37239;SDS011;23130;48.760;9.178;2023-07-16T12:30:06;3.33;;;1.67;;
37239;SDS011;23130;48.760;9.178;2023-07-16T12:32:33;3.03;;;1.40;;
37239;SDS011;23130;48.760;9.178;2023-07-16T12:34:58;3.10;;;1.40;;
37239;SDS011;23130;48.760;9.178;2023-07-16T12:37:25;4.53;;;1.65;;
37239;SDS011;23130;48.760;9.178;2023-07-16T12:39:51;2.25;;;1.35;;
37239;SDS011;23130;48.760;9.178;2023-07-16T12:42:16;2.15;;;1.30;;
37239;SDS011;23130;48.760;9.178;2023-07-16T12:44:42;4.40;;;1.42;;
37239;SDS011;23130;48.760;9.178;2023-07-16T12:47:07;3.67;;;1.67;;
37239;SDS011;23130;48.760;9.178;2023-07-16T12:49:36;2.80;;;1.63;;
37239;SDS011;23130;48.760;9.178;2023-07-16T12:52:01;3.33;;;1.20;;
37239;SDS011;23130;48.760;9.178;2023-07-16T12:54:27;3.58;;;1.52;;
37239;SDS011;23130;48.760;9.178;2023-07-16T12:56:53;3.05;;;1.45;;
37239;SDS011;23130;48.760;9.178;2023-07-16T12:59:19;2.17;;;1.25;;
37239;SDS011;23130;48.760;9.178;2023-07-16T13:01:45;3.22;;;1.20;;
37239;SDS011;23130;48.760;9.178;2023-07-16T13:04:11;2.45;;;1.35;;
37239;SDS011;23130;48.760;9.178;2023-07-16T13:06:36;2.80;;;1.38;;
37239;SDS011;23130;48.760;9.178;2023-07-16T13:09:02;2.33;;;1.42;;
37239;SDS011;23130;48.760;9.178;2023-07-16T13:11:30;4.18;;;1.25;;
37239;SDS011;23130;48.760;9.178;2023-07-16T13:13:55;3.05;;;1.55;;
37239;SDS011;23130;48.760;9.178;2023-07-16T13:16:21;2.53;;;1.60;;
37239;SDS011;23130;48.760;9.178;2023-07-16T13:18:46;3.38;;;1.52;;
37239;SDS011;23130;48.760;9.178;2023-07-16T13:21:12;3.95;;;1.33;;
37239;SDS011;23130;48.760;9.178;2023-07-16T13:23:38;3.75;;;1.80;;
37239;SDS011;23130;48.760;9.178;2023-07-16T13:26:03;4.50;;;1.52;;
37239;SDS011;23130;48.760;9.178;2023-07-16T13:28:29;4.72;;;1.60;;
37239;SDS011;23130;48.760;9.178;2023-07-16T13:30:54;2.78;;;1.58;;
37239;SDS011;23130;48.760;9.178;2023-07-16T13:33:20;6.57;;;1.80;;
37239;SDS011;23130;48.760;9.178;2023-07-16T13:35:45;2.75;;;1.55;;
37239;SDS011;23130;48.760;9.178;2023-07-16T13:38:11;6.95;;;2.28;;
37239;SDS011;23130;48.760;9.178;2023-07-16T13:40:36;3.50;;;1.65;;
37239;SDS011;23130;48.760;9.178;2023-07-16T13:43:02;3.22;;;1.60;;
37239;SDS011;23130;48.760;9.178;2023-07-16T13:45:28;2.83;;;1.20;;
37239;SDS011;23130;48.760;9.178;2023-07-16T13:47:53;2.85;;;1.65;;
37239;SDS011;23130;48.760;9.178;2023-07-16T13:50:20;4.70;;;1.67;;
37239;SDS011;23130;48.760;9.178;2023-07-16T13:52:46;2.67;;;1.05;;
37239;SDS011;23130;48.760;9.178;2023-07-16T13:55:11;1.80;;;1.23;;
37239;SDS011;23130;48.760;9.178;2023-07-16T13:57:37;2.33;;;1.45;;
37239;SDS011;23130;48.760;9.178;2023-07-16T14:00:03;3.42;;;1.70;;
37239;SDS011;23130;48.760;9.178;2023-07-16T14:02:29;2.70;;;1.65;;
37239;SDS011;23130;48.760;9.178;2023-07-16T14:04:55;2.17;;;1.20;;
37239;SDS011;23130;48.760;9.178;2023-07-16T14:07:21;4.22;;;1.92;;
37239;SDS011;23130;48.760;9.178;2023-07-16T14:09:47;2.50;;;1.20;;
37239;SDS011;23130;48.760;9.178;2023-07-16T14:12:13;3.92;;;1.52;;
37239;SDS011;23130;48.760;9.178;2023-07-16T14:14:39;5.03;;;1.55;;
37239;SDS011;23130;48.760;9.178;2023-07-16T14:17:04;3.38;;;1.20;;
37239;SDS011;23130;48.760;9.178;2023-07-16T14:19:30;3.00;;;1.30;;
37239;SDS011;23130;48.760;9.178;2023-07-16T14:21:56;3.05;;;1.30;;
37239;SDS011;23130;48.760;9.178;2023-07-16T14:24:21;3.78;;;1.60;;
37239;SDS011;23130;48.760;9.178;2023-07-16T14:26:47;2.40;;;1.30;;
37239;SDS011;23130;48.760;9.178;2023-07-16T14:29:13;3.78;;;1.63;;
37239;SDS011;23130;48.760;9.178;2023-07-16T14:31:40;10.40;;;1.40;;
37239;SDS011;23130;48.760;9.178;2023-07-16T14:34:05;5.97;;;1.63;;
37239;SDS011;23130;48.760;9.178;2023-07-16T14:36:31;1.98;;;1.33;;
37239;SDS011;23130;48.760;9.178;2023-07-16T14:38:57;4.00;;;1.88;;
37239;SDS011;23130;48.760;9.178;2023-07-16T14:41:23;2.80;;;1.67;;
37239;SDS011;23130;48.760;9.178;2023-07-16T14:43:48;4.47;;;2.28;;
37239;SDS011;23130;48.760;9.178;2023-07-16T14:46:15;2.65;;;1.60;;
37239;SDS011;23130;48.760;9.178;2023-07-16T14:48:44;4.10;;;1.10;;
37239;SDS011;23130;48.760;9.178;2023-07-16T14:51:10;3.15;;;1.58;;
37239;SDS011;23130;48.760;9.178;2023-07-16T14:53:37;1.55;;;1.02;;
37239;SDS011;23130;48.760;9.178;2023-07-16T14:56:03;2.08;;;1.13;;
37239;SDS011;23130;48.760;9.178;2023-07-16T14:58:30;3.30;;;1.55;;
37239;SDS011;23130;48.760;9.178;2023-07-16T15:00:59;1.85;;;1.17;;
37239;SDS011;23130;48.760;9.178;2023-07-16T15:03:26;6.13;;;1.48;;
37239;SDS011;23130;48.760;9.178;2023-07-16T15:05:55;4.13;;;1.92;;